Time;durP1;ratioP1;P1;durP2;ratioP2;P2;SDS_P1;SDS_P2;PMS_P1;PMS_P2;Temp;Humidity;BMP_temperature;BMP_pressure;BME280_temperature;BME280_humidity;BME280_pressure;Samples;Min_cycle;Max_cycle;Signal;HPM_P1;HPM_P2
2023/05/21 00:02:16;;;;;;;2.60;2.33;;;;;;;-145.18;100.00;46621.31;5034444;28;20061;-61
2023/05/21 00:04:42;;;;;;;4.53;2.23;;;;;;;-145.18;100.00;46617.41;5034675;28;20068;-62
2023/05/21 00:07:08;;;;;;;3.00;1.93;;;;;;;-145.18;100.00;46597.88;5034657;28;20033;-61
2023/05/21 00:09:37;;;;;;;3.97;2.17;;;;;;;-145.18;100.00;46613.50;5034300;28;20402;-61
2023/05/21 00:12:06;;;;;;;3.50;2.30;;;;;;;-145.18;100.00;46599.84;5034357;28;20033;-61
2023/05/21 00:14:32;;;;;;;3.77;2.10;;;;;;;-145.18;100.00;46592.03;5034116;28;20051;-61
2023/05/21 00:16:57;;;;;;;4.77;2.80;;;;;;;-145.18;100.00;46590.06;5048377;28;20116;-61
2023/05/21 00:19:22;;;;;;;3.33;2.50;;;;;;;-145.18;100.00;46580.31;5054048;28;20156;-61
2023/05/21 00:21:48;;;;;;;3.53;2.17;;;;;;;-145.18;100.00;46590.06;5054494;28;20044;-61
2023/05/21 00:24:13;;;;;;;3.87;2.67;;;;;;;-145.18;100.00;46592.03;5019732;28;20384;-61
2023/05/21 00:26:39;;;;;;;7.97;2.70;;;;;;;-145.18;100.00;46588.13;5034444;28;20034;-61
2023/05/21 00:29:04;;;;;;;3.37;2.43;;;;;;;-145.18;100.00;46570.53;5034201;28;20044;-61
2023/05/21 00:31:30;;;;;;;3.17;2.37;;;;;;;-145.18;100.00;46582.25;5034562;28;20112;-62
2023/05/21 00:33:56;;;;;;;3.10;2.53;;;;;;;-145.18;100.00;46582.25;5053446;28;20029;-61
2023/05/21 00:36:22;;;;;;;4.27;2.53;;;;;;;-145.18;100.00;46568.59;5053723;28;20398;-61
2023/05/21 00:38:49;;;;;;;6.40;3.33;;;;;;;-145.18;100.00;46582.25;5054184;28;20075;-61
2023/05/21 00:41:15;;;;;;;4.07;2.60;;;;;;;-145.18;100.00;46574.44;5053306;28;20044;-62
2023/05/21 00:43:43;;;;;;;7.13;2.27;;;;;;;-145.18;100.00;46568.59;5053665;28;20025;-61
2023/05/21 00:46:20;;;;;;;6.33;2.73;;;;;;;-145.18;100.00;46576.41;5042007;28;20041;-62
2023/05/21 00:48:46;;;;;;;3.60;2.50;;;;;;;-145.18;100.00;46570.53;5035083;28;20049;-61
2023/05/21 00:51:17;;;;;;;4.40;2.80;;;;;;;-145.18;100.00;46580.31;5033462;28;20029;-61
2023/05/21 00:53:43;;;;;;;3.57;2.43;;;;;;;-145.18;100.00;46566.63;5033923;28;20062;-61
2023/05/21 00:56:09;;;;;;;4.07;2.83;;;;;;;-145.18;100.00;46570.53;5033586;28;20040;-62
2023/05/21 00:58:36;;;;;;;4.33;2.60;;;;;;;-145.18;100.00;46562.72;5015878;28;20034;-61
2023/05/21 01:01:05;;;;;;;4.23;3.07;;;;;;;-145.18;100.00;46564.69;5033175;28;20065;-61
2023/05/21 01:03:37;;;;;;;5.43;3.00;;;;;;;-145.18;100.00;46562.72;5033743;28;20036;-61
2023/05/21 01:06:07;;;;;;;5.47;2.57;;;;;;;-145.18;100.00;46564.69;5049345;28;20064;-62
2023/05/21 01:08:34;;;;;;;4.70;2.70;;;;;;;-145.18;100.00;46564.69;5033409;28;20026;-61
2023/05/21 01:11:02;;;;;;;3.80;2.80;;;;;;;-145.18;100.00;46564.69;5033617;28;20040;-62
2023/05/21 01:13:28;;;;;;;3.80;2.67;;;;;;;-145.18;100.00;46562.72;5033506;28;20025;-62
2023/05/21 01:15:54;;;;;;;3.70;2.60;;;;;;;-145.18;100.00;46572.50;5015739;28;20041;-62
2023/05/21 01:18:20;;;;;;;3.77;2.67;;;;;;;-145.18;100.00;46554.91;5032872;28;20049;-62
2023/05/21 01:20:49;;;;;;;3.43;2.63;;;;;;;-145.18;100.00;46558.81;5034411;28;20037;-62
2023/05/21 01:23:18;;;;;;;4.50;2.90;;;;;;;-145.18;100.00;46560.78;5033282;28;20068;-62
2023/05/21 01:25:45;;;;;;;4.63;2.77;;;;;;;-145.18;100.00;46568.59;5049802;28;20094;-62
2023/05/21 01:28:10;;;;;;;4.87;2.73;;;;;;;-145.18;100.00;46566.63;5052903;28;20040;-62
2023/05/21 01:30:38;;;;;;;7.63;3.00;;;;;;;-145.18;100.00;46564.69;5052910;28;20028;-62
2023/05/21 01:33:07;;;;;;;4.73;2.63;;;;;;;-145.18;100.00;46566.63;5053125;28;20044;-62
2023/05/21 01:35:37;;;;;;;3.67;2.70;;;;;;;-145.18;100.00;46562.72;5052301;28;20028;-62
2023/05/21 01:38:23;;;;;;;6.03;2.83;;;;;;;-145.18;100.00;46570.53;5051431;28;20067;-62
2023/05/21 01:41:04;;;;;;;6.80;2.75;;;;;;;-145.18;100.00;46564.69;5052686;28;20064;-62
2023/05/21 01:43:37;;;;;;;4.97;3.07;;;;;;;-145.18;100.00;46564.69;5052059;28;20029;-61
2023/05/21 01:46:04;;;;;;;5.27;2.73;;;;;;;-145.18;100.00;46566.63;5032685;28;20486;-62
2023/05/21 01:48:30;;;;;;;5.87;2.77;;;;;;;-145.18;100.00;46556.88;5032882;28;20025;-62
2023/05/21 01:50:59;;;;;;;3.57;2.60;;;;;;;-145.18;100.00;46562.72;5014975;28;20036;-62
2023/05/21 01:53:25;;;;;;;3.60;2.83;;;;;;;-145.18;100.00;46564.69;5033561;28;20029;-62
2023/05/21 01:55:50;;;;;;;5.37;3.20;;;;;;;-145.18;100.00;46560.78;5033132;28;20036;-62
2023/05/21 01:58:16;;;;;;;3.83;2.40;;;;;;;-145.18;100.00;46568.59;5052614;28;20033;-62
2023/05/21 02:00:41;;;;;;;4.23;2.80;;;;;;;-145.18;100.00;46568.59;5052593;28;20555;-62
2023/05/21 02:03:07;;;;;;;4.57;3.00;;;;;;;-145.18;100.00;46568.59;5033594;28;20379;-62
2023/05/21 02:05:33;;;;;;;4.13;2.87;;;;;;;-145.18;100.00;46560.78;5051824;28;20031;-62
2023/05/21 02:07:59;;;;;;;5.43;2.73;;;;;;;-145.18;100.00;46558.81;5036637;28;20498;-62
2023/05/21 02:10:25;;;;;;;5.53;2.90;;;;;;;-145.18;100.00;46562.72;5033388;28;20516;-62
2023/05/21 02:12:50;;;;;;;4.10;2.67;;;;;;;-145.18;100.00;46560.78;5032435;28;20033;-62
2023/05/21 02:15:19;;;;;;;4.10;3.10;;;;;;;-145.18;100.00;46556.88;5032308;28;20433;-62
2023/05/21 02:17:45;;;;;;;4.70;3.00;;;;;;;-145.18;100.00;46560.78;5039054;28;20508;-62
2023/05/21 02:20:11;;;;;;;4.43;3.07;;;;;;;-145.18;100.00;46562.72;5051969;28;20045;-62
2023/05/21 02:22:45;;;;;;;5.33;3.40;;;;;;;-145.18;100.00;46558.81;5052302;28;20402;-62
2023/05/21 02:25:12;;;;;;;6.63;3.10;;;;;;;-145.18;100.00;46554.91;5045950;28;20040;-62
2023/05/21 02:27:39;;;;;;;3.93;2.93;;;;;;;-145.18;100.00;46556.88;5032933;28;20538;-62
2023/05/21 02:30:07;;;;;;;3.30;2.53;;;;;;;-145.18;100.00;46558.81;5031991;28;20037;-62
2023/05/21 02:32:33;;;;;;;4.73;3.00;;;;;;;-145.18;100.00;46558.81;5014998;28;20025;-62
2023/05/21 02:35:02;;;;;;;7.53;3.37;;;;;;;-145.18;100.00;46558.81;5032093;28;20075;-62
2023/05/21 02:37:28;;;;;;;3.53;2.77;;;;;;;-145.18;100.00;46558.81;5032308;28;20031;-62
2023/05/21 02:39:54;;;;;;;6.07;3.50;;;;;;;-145.18;100.00;46564.69;5032531;28;20029;-62
2023/05/21 02:42:23;;;;;;;7.90;3.43;;;;;;;-145.18;100.00;46564.69;5014142;28;20028;-62
2023/05/21 02:44:51;;;;;;;5.50;3.40;;;;;;;-145.18;100.00;46570.53;5032173;28;20105;-62
2023/05/21 02:47:18;;;;;;;5.23;2.93;;;;;;;-145.18;100.00;46560.78;5031916;28;20025;-62
2023/05/21 02:49:44;;;;;;;5.60;3.33;;;;;;;-145.18;100.00;46562.72;5031881;28;20566;-61
2023/05/21 02:52:10;;;;;;;4.70;3.00;;;;;;;-145.18;100.00;46562.72;5032145;28;20108;-62
2023/05/21 02:54:35;;;;;;;7.23;3.63;;;;;;;-145.18;100.00;46551.00;5032988;28;20498;-61
2023/05/21 02:57:01;;;;;;;7.20;3.20;;;;;;;-145.18;100.00;46558.81;5032163;28;20022;-62
2023/05/21 02:59:26;;;;;;;5.43;3.10;;;;;;;-145.18;100.00;46560.78;5032090;28;20116;-61
2023/05/21 03:01:51;;;;;;;5.53;3.40;;;;;;;-145.18;100.00;46556.88;5034640;28;20101;-62
2023/05/21 03:04:17;;;;;;;5.63;3.57;;;;;;;-145.18;100.00;46554.91;5033765;28;20513;-62
2023/05/21 03:06:43;;;;;;;5.47;3.27;;;;;;;-145.18;100.00;46562.72;5051870;28;20032;-62
2023/05/21 03:09:09;;;;;;;7.37;3.30;;;;;;;-145.18;100.00;46554.91;5033932;28;20108;-62
2023/05/21 03:11:35;;;;;;;5.63;3.63;;;;;;;-145.18;100.00;46560.78;5051989;28;20029;-62
2023/05/21 03:14:00;;;;;;;4.23;3.13;;;;;;;-145.18;100.00;46558.81;5036323;28;20509;-62
2023/05/21 03:16:26;;;;;;;5.63;3.40;;;;;;;-145.18;100.00;46558.81;5040247;28;20064;-61
2023/05/21 03:18:51;;;;;;;5.13;3.50;;;;;;;-145.18;100.00;46552.97;5050923;28;20048;-62
2023/05/21 03:21:16;;;;;;;4.80;3.23;;;;;;;-145.18;100.00;46551.00;5057296;28;20060;-62
2023/05/21 03:23:42;;;;;;;6.00;3.67;;;;;;;-145.18;100.00;46554.91;5057318;28;20025;-61
2023/05/21 03:26:07;;;;;;;5.87;3.47;;;;;;;-145.18;100.00;46552.97;5064743;28;20056;-62
2023/05/21 03:28:34;;;;;;;5.33;3.33;;;;;;;-145.18;100.00;46552.97;5040390;28;20030;-62
2023/05/21 03:30:59;;;;;;;7.33;3.80;;;;;;;-145.18;100.00;46554.91;5035365;28;20048;-62
2023/05/21 03:33:24;;;;;;;6.33;3.83;;;;;;;-145.18;100.00;46556.88;5035056;28;20382;-61
2023/05/21 03:35:50;;;;;;;6.87;3.60;;;;;;;-145.18;100.00;46554.91;5035288;28;20029;-62
2023/05/21 03:38:15;;;;;;;5.37;3.40;;;;;;;-145.18;100.00;46552.97;5055028;28;20060;-61
2023/05/21 03:40:41;;;;;;;5.03;3.70;;;;;;;-145.18;100.00;46549.06;5054960;28;20028;-62
2023/05/21 03:43:06;;;;;;;7.43;4.00;;;;;;;-145.18;100.00;46552.97;5037292;28;20028;-62
2023/05/21 03:45:31;;;;;;;5.80;3.73;;;;;;;-145.18;100.00;46551.00;5045327;28;20033;-62
2023/05/21 03:47:57;;;;;;;6.03;4.03;;;;;;;-145.18;100.00;46549.06;5034833;28;20025;-62
2023/05/21 03:50:22;;;;;;;5.37;3.70;;;;;;;-145.18;100.00;46556.88;5034742;28;20033;-62
2023/05/21 03:52:47;;;;;;;6.90;4.03;;;;;;;-145.18;100.00;46554.91;5035047;28;20033;-62
2023/05/21 03:55:13;;;;;;;6.70;4.30;;;;;;;-145.18;100.00;46552.97;5034997;28;20364;-62
2023/05/21 03:57:38;;;;;;;7.07;3.63;;;;;;;-145.18;100.00;46556.88;5034459;28;20048;-62
2023/05/21 04:00:05;;;;;;;5.00;3.20;;;;;;;-145.18;100.00;46554.91;5035989;28;20091;-62
2023/05/21 04:02:31;;;;;;;6.27;4.00;;;;;;;-145.18;100.00;46554.91;5034080;28;20477;-62
2023/05/21 04:04:56;;;;;;;8.23;3.70;;;;;;;-145.18;100.00;46549.06;5038695;28;20044;-62
2023/05/21 04:07:22;;;;;;;8.60;3.97;;;;;;;-145.18;100.00;46554.91;5036828;28;20115;-62
2023/05/21 04:09:48;;;;;;;5.30;3.73;;;;;;;-145.18;100.00;46558.81;5036759;28;20453;-62
2023/05/21 04:12:13;;;;;;;6.47;4.20;;;;;;;-145.18;100.00;46556.88;5054557;28;20044;-62
2023/05/21 04:14:38;;;;;;;5.57;3.80;;;;;;;-145.18;100.00;46560.78;5034707;28;20105;-62
2023/05/21 04:17:04;;;;;;;8.50;4.53;;;;;;;-145.18;100.00;46564.69;5034211;28;20509;-62
2023/05/21 04:19:30;;;;;;;6.47;3.87;;;;;;;-145.18;100.00;46564.69;5034084;28;20103;-62
2023/05/21 04:21:56;;;;;;;8.83;4.30;;;;;;;-145.18;100.00;46562.72;5054357;28;20489;-62
2023/05/21 04:24:23;;;;;;;5.83;3.60;;;;;;;-145.18;100.00;46560.78;5053300;28;20053;-62
2023/05/21 04:26:48;;;;;;;7.57;4.60;;;;;;;-145.18;100.00;46611.56;5054146;28;20044;-62
2023/05/21 04:29:16;;;;;;;6.33;3.73;;;;;;;-145.18;100.00;46613.50;5045902;28;20025;-62
2023/05/21 04:31:42;;;;;;;5.37;3.73;;;;;;;-145.18;100.00;46564.69;5043212;28;20052;-61
2023/05/21 04:34:08;;;;;;;5.93;4.20;;;;;;;-145.18;100.00;46613.50;5044802;28;20071;-62
2023/05/21 04:36:33;;;;;;;7.10;3.87;;;;;;;-145.18;100.00;46613.50;5041338;28;20451;-62
2023/05/21 04:38:59;;;;;;;9.13;4.30;;;;;;;-145.18;100.00;46617.41;4997823;28;20059;-62
2023/05/21 04:41:24;;;;;;;7.83;4.43;;;;;;;-145.18;100.00;46566.63;5018350;28;20044;-62
2023/05/21 04:43:53;;;;;;;8.77;4.43;;;;;;;-145.18;100.00;46568.59;5041294;28;20116;-62
2023/05/21 04:46:23;;;;;;;7.27;4.50;;;;;;;-145.18;100.00;46613.50;5044417;28;20028;-62
2023/05/21 04:48:55;;;;;;;8.50;3.97;;;;;;;-145.18;100.00;46621.31;5043100;28;20079;-62
2023/05/21 04:51:25;;;;;;;6.87;3.90;;;;;;;-145.18;100.00;46627.19;5041320;28;20024;-62
2023/05/21 04:53:50;;;;;;;9.87;3.90;;;;;;;-145.18;100.00;46627.19;5039705;28;20058;-62
2023/05/21 04:56:17;;;;;;;6.33;4.17;;;;;;;-145.18;100.00;46627.19;5037955;28;20033;-62
2023/05/21 04:58:43;;;;;;;7.67;3.83;;;;;;;-145.18;100.00;46633.06;5016486;28;20183;-62
2023/05/21 05:01:08;;;;;;;5.60;3.97;;;;;;;-145.18;100.00;46633.06;5033430;28;20033;-62
2023/05/21 05:03:34;;;;;;;8.97;4.50;;;;;;;-145.18;100.00;46635.00;5033422;28;20036;-62
2023/05/21 05:06:03;;;;;;;9.90;5.03;;;;;;;-145.18;100.00;46636.94;5016114;28;20037;-62
2023/05/21 05:08:28;;;;;;;6.60;3.97;;;;;;;-145.18;100.00;46635.00;5033438;28;20026;-62
2023/05/21 05:10:53;;;;;;;7.73;3.87;;;;;;;-145.18;100.00;46633.06;5033468;28;20036;-62
2023/05/21 05:13:19;;;;;;;6.43;4.20;;;;;;;-145.18;100.00;46629.13;5033045;28;20029;-61
2023/05/21 05:15:45;;;;;;;8.17;4.80;;;;;;;-145.18;100.00;46633.06;5031503;28;20029;-62
2023/05/21 05:18:11;;;;;;;7.90;4.07;;;;;;;-145.18;100.00;46627.19;5053261;28;20032;-62
2023/05/21 05:20:36;;;;;;;6.20;4.60;;;;;;;-145.18;100.00;46619.38;5049872;28;20041;-62
2023/05/21 05:23:01;;;;;;;6.47;4.43;;;;;;;-145.18;100.00;46576.41;5027171;28;20453;-63
2023/05/21 05:25:27;;;;;;;5.77;3.90;;;;;;;-145.18;100.00;46566.63;5022545;28;20398;-62
2023/05/21 05:27:52;;;;;;;7.23;4.23;;;;;;;-145.18;100.00;46558.81;5044487;28;20037;-62
2023/05/21 05:30:19;;;;;;;6.07;3.83;;;;;;;-145.18;100.00;46568.59;5045265;28;20653;-62
2023/05/21 05:32:45;;;;;;;6.33;4.20;;;;;;;-145.18;100.00;46568.59;5050973;28;20494;-62
2023/05/21 05:35:10;;;;;;;8.10;4.10;;;;;;;-145.18;100.00;46554.91;5052918;28;20031;-62
2023/05/21 05:37:36;;;;;;;5.83;4.13;;;;;;;-145.18;100.00;46547.09;5023982;28;20033;-62
2023/05/21 05:40:03;;;;;;;6.53;4.60;;;;;;;-145.18;100.00;46541.25;5032855;28;20029;-62
2023/05/21 05:42:28;;;;;;;5.47;4.00;;;;;;;-145.18;100.00;46537.34;5039688;28;20021;-62
2023/05/21 05:44:54;;;;;;;5.30;3.93;;;;;;;-145.18;100.00;46537.34;5034384;28;20035;-62
2023/05/21 05:47:20;;;;;;;6.50;4.20;;;;;;;-145.18;100.00;46529.53;5052803;28;20039;-62
2023/05/21 05:49:46;;;;;;;7.03;4.53;;;;;;;-145.18;100.00;46529.53;5050886;28;20029;-61
2023/05/21 05:52:11;;;;;;;5.73;4.20;;;;;;;-145.18;100.00;46531.47;5052469;28;20086;-62
2023/05/21 05:54:37;;;;;;;7.17;4.83;;;;;;;-145.18;100.00;46527.56;5027741;28;20024;-62
2023/05/21 05:57:02;;;;;;;7.27;4.13;;;;;;;-145.18;100.00;46531.47;5032598;28;20120;-62
2023/05/21 05:59:28;;;;;;;5.53;3.80;;;;;;;-145.18;100.00;46529.53;5032861;28;20437;-62
2023/05/21 06:01:53;;;;;;;4.67;3.57;;;;;;;-145.18;100.00;46535.38;5032321;28;20491;-62
2023/05/21 06:04:18;;;;;;;6.60;4.47;;;;;;;-145.18;100.00;46531.47;5038115;28;20036;-62
2023/05/21 06:06:44;;;;;;;7.03;4.40;;;;;;;-145.18;100.00;46533.44;5032593;28;20461;-62
2023/05/21 06:09:10;;;;;;;6.13;4.60;;;;;;;-145.18;100.00;46533.44;5039399;28;20029;-62
2023/05/21 06:11:36;;;;;;;9.03;4.20;;;;;;;-145.18;100.00;46539.28;5040064;28;20036;-62
2023/05/21 06:14:01;;;;;;;5.90;3.93;;;;;;;-145.18;100.00;46527.56;5039361;28;20021;-61
2023/05/21 06:16:30;;;;;;;9.03;4.07;;;;;;;-145.18;100.00;46531.47;5051937;28;20509;-62
2023/05/21 06:18:56;;;;;;;6.23;4.40;;;;;;;-145.18;100.00;46535.38;5048441;28;20068;-62
2023/05/21 06:21:22;;;;;;;6.50;4.23;;;;;;;-145.18;100.00;46535.38;5046940;28;20040;-62
2023/05/21 06:23:47;;;;;;;5.97;4.10;;;;;;;-145.18;100.00;46533.44;5052069;28;20124;-62
2023/05/21 06:26:12;;;;;;;5.67;3.53;;;;;;;-145.18;100.00;46535.38;5043213;28;20124;-62
2023/05/21 06:28:38;;;;;;;5.20;3.90;;;;;;;-145.18;100.00;46533.44;5035554;28;20059;-62
2023/05/21 06:31:03;;;;;;;6.60;4.30;;;;;;;-145.18;100.00;46537.34;5035041;28;20116;-62
2023/05/21 06:33:29;;;;;;;7.20;4.20;;;;;;;-145.18;100.00;46537.34;5032096;28;20034;-62
2023/05/21 06:35:54;;;;;;;7.37;4.53;;;;;;;-145.18;100.00;46541.25;5032475;28;20048;-62
2023/05/21 06:38:20;;;;;;;6.77;4.50;;;;;;;-145.18;100.00;46537.34;5034407;28;20033;-62
2023/05/21 06:40:46;;;;;;;5.37;4.10;;;;;;;-145.18;100.00;46535.38;5010671;28;20041;-62
2023/05/21 06:43:13;;;;;;;6.70;4.20;;;;;;;-145.18;100.00;46539.28;5031970;28;20498;-62
2023/05/21 06:45:38;;;;;;;6.57;4.40;;;;;;;-145.18;100.00;46539.28;5041203;28;20488;-62
2023/05/21 06:48:04;;;;;;;7.23;4.33;;;;;;;-145.18;100.00;46535.38;5052091;28;20115;-61
2023/05/21 06:50:29;;;;;;;5.80;4.20;;;;;;;-145.18;100.00;46541.25;5048864;28;20521;-62
2023/05/21 06:52:54;;;;;;;10.43;4.40;;;;;;;-145.18;100.00;46545.16;5067109;28;20170;-62
2023/05/21 06:55:20;;;;;;;6.07;4.20;;;;;;;-145.18;100.00;46543.19;5050214;28;20364;-62
2023/05/21 06:57:45;;;;;;;8.23;4.77;;;;;;;-145.18;100.00;46551.00;5023906;28;20045;-62
2023/05/21 07:00:11;;;;;;;9.03;4.70;;;;;;;-145.18;100.00;46551.00;5041307;28;20495;-62
2023/05/21 07:02:36;;;;;;;6.40;4.57;;;;;;;-145.18;100.00;46539.28;5035859;28;20040;-63
2023/05/21 07:05:02;;;;;;;8.57;4.63;;;;;;;-145.18;100.00;46545.16;5035800;28;20488;-62
2023/05/21 07:07:27;;;;;;;7.47;4.37;;;;;;;-145.18;100.00;46545.16;5035760;28;20042;-62
2023/05/21 07:09:52;;;;;;;10.57;5.23;;;;;;;-145.18;100.00;46549.06;5040918;28;20393;-63
2023/05/21 07:12:18;;;;;;;8.93;4.83;;;;;;;-145.18;100.00;46533.44;5040896;28;20069;-63
2023/05/21 07:14:43;;;;;;;6.50;4.50;;;;;;;-145.18;100.00;46552.97;5036311;28;20030;-63
2023/05/21 07:17:09;;;;;;;9.87;5.07;;;;;;;-145.18;100.00;46541.25;5052634;28;20108;-62
2023/05/21 07:19:34;;;;;;;7.53;4.90;;;;;;;-145.18;100.00;46539.28;5055526;28;20521;-62
2023/05/21 07:21:59;;;;;;;7.93;5.20;;;;;;;-145.18;100.00;46545.16;5057959;28;20127;-62
2023/05/21 07:24:26;;;;;;;7.27;5.00;;;;;;;-145.18;100.00;46547.09;5024841;28;20116;-62
2023/05/21 07:26:52;;;;;;;7.07;4.77;;;;;;;-145.18;100.00;46547.09;5037185;28;20546;-62
2023/05/21 07:29:17;;;;;;;6.50;4.57;;;;;;;-145.18;100.00;46551.00;5052705;28;20116;-62
2023/05/21 07:31:42;;;;;;;7.80;5.07;;;;;;;-145.18;100.00;46551.00;5044024;28;20116;-62
2023/05/21 07:34:08;;;;;;;10.00;5.10;;;;;;;-145.18;100.00;46545.16;5025136;28;20024;-62
2023/05/21 07:36:33;;;;;;;9.13;4.93;;;;;;;-145.18;100.00;46552.97;5041453;28;20041;-62
2023/05/21 07:38:59;;;;;;;7.67;4.80;;;;;;;-145.18;100.00;46545.16;5048893;28;20405;-62
2023/05/21 07:41:25;;;;;;;6.90;4.90;;;;;;;-145.18;100.00;46541.25;5049188;28;20041;-63
2023/05/21 07:43:50;;;;;;;8.17;5.27;;;;;;;-145.18;100.00;46543.19;5021601;28;20041;-62
2023/05/21 07:46:16;;;;;;;7.63;5.03;;;;;;;-145.18;100.00;46549.06;5026331;28;20060;-62
2023/05/21 07:48:42;;;;;;;7.43;4.70;;;;;;;-145.18;100.00;46547.09;5029730;28;20094;-62
2023/05/21 07:51:08;;;;;;;7.77;5.30;;;;;;;-145.18;100.00;46551.00;5034533;28;20072;-62
2023/05/21 07:53:33;;;;;;;8.60;5.23;;;;;;;-145.18;100.00;46547.09;5016797;28;20124;-62
2023/05/21 07:55:59;;;;;;;9.67;5.27;;;;;;;-145.18;100.00;46543.19;5042357;28;20029;-62
2023/05/21 07:58:25;;;;;;;6.93;4.30;;;;;;;-145.18;100.00;46549.06;5043138;28;20033;-62
2023/05/21 08:00:50;;;;;;;7.93;5.30;;;;;;;-145.18;100.00;46551.00;5021723;28;20044;-62
2023/05/21 08:03:16;;;;;;;11.07;5.30;;;;;;;-145.18;100.00;46543.19;5043904;28;20044;-62
2023/05/21 08:05:49;;;;;;;6.60;5.43;;;;;;;-145.18;100.00;46539.28;5039652;28;20037;-62
2023/05/21 08:08:18;;;;;;;7.43;4.83;;;;;;;-145.18;100.00;46539.28;5034498;28;20120;-62
2023/05/21 08:10:45;;;;;;;8.30;5.27;;;;;;;-145.18;100.00;46545.16;5034728;28;20033;-62
2023/05/21 08:13:11;;;;;;;9.30;5.37;;;;;;;-145.18;100.00;46552.97;5046214;28;20115;-62
2023/05/21 08:15:36;;;;;;;9.53;5.47;;;;;;;-145.18;100.00;46554.91;5053652;28;20497;-62
2023/05/21 08:18:02;;;;;;;7.97;5.37;;;;;;;-145.18;100.00;46549.06;5051380;28;20029;-62
2023/05/21 08:20:29;;;;;;;8.57;5.77;;;;;;;-145.18;100.00;46552.97;5034070;28;20132;-62
2023/05/21 08:22:55;;;;;;;9.27;5.53;;;;;;;-145.18;100.00;46545.16;5000964;28;20029;-62
2023/05/21 08:25:21;;;;;;;8.23;5.53;;;;;;;-145.18;100.00;46549.06;5033916;28;20041;-62
2023/05/21 08:27:46;;;;;;;8.43;5.50;;;;;;;-145.18;100.00;46547.09;5016801;28;20099;-62
2023/05/21 08:30:12;;;;;;;9.30;6.03;;;;;;;-145.18;100.00;46551.00;5034632;28;20044;-62
2023/05/21 08:32:37;;;;;;;10.13;5.50;;;;;;;-145.18;100.00;46551.00;5016652;28;20526;-62
2023/05/21 08:35:03;;;;;;;9.93;5.00;;;;;;;-145.18;100.00;46545.16;5034924;28;20037;-62
2023/05/21 08:37:29;;;;;;;8.47;5.97;;;;;;;-145.18;100.00;46552.97;5016432;28;20042;-62
2023/05/21 08:39:54;;;;;;;10.07;5.50;;;;;;;-145.18;100.00;46551.00;5016707;28;20031;-62
2023/05/21 08:42:46;;;;;;;8.73;5.67;;;;;;;-145.18;100.00;46549.06;5033782;28;20040;-62
2023/05/21 08:45:14;;;;;;;8.13;6.17;;;;;;;-145.18;100.00;46549.06;5024972;28;20049;-62
2023/05/21 08:47:43;;;;;;;8.53;5.60;;;;;;;-145.18;100.00;46539.28;5016277;28;20582;-62
2023/05/21 08:50:11;;;;;;;8.57;5.50;;;;;;;-145.18;100.00;46568.59;5016421;28;20075;-62
2023/05/21 08:52:36;;;;;;;9.33;6.37;;;;;;;-145.18;100.00;46566.63;5052101;28;20028;-62
2023/05/21 08:55:06;;;;;;;10.90;5.70;;;;;;;-145.18;100.00;46570.53;5040047;28;20080;-62
2023/05/21 08:57:32;;;;;;;8.43;5.63;;;;;;;-145.18;100.00;46558.81;5033785;28;20028;-62
2023/05/21 08:59:58;;;;;;;7.90;5.27;;;;;;;-145.18;100.00;46562.72;5037603;28;21303;-62
2023/05/21 09:02:23;;;;;;;10.27;5.90;;;;;;;-145.18;100.00;46564.69;5053492;28;20107;-62
2023/05/21 09:04:50;;;;;;;10.10;6.07;;;;;;;-145.18;100.00;46566.63;5053015;28;20494;-62
2023/05/21 09:07:16;;;;;;;10.07;5.47;;;;;;;-145.18;100.00;46593.97;5053130;28;20486;-62
2023/05/21 09:10:11;;;;;;;8.67;5.60;;;;;;;-145.18;100.00;46597.88;5039212;28;20410;-62
2023/05/21 09:12:36;;;;;;;8.07;4.80;;;;;;;-145.18;100.00;46593.97;5030938;28;20087;-62
2023/05/21 09:15:03;;;;;;;8.43;5.77;;;;;;;-145.18;100.00;46597.88;5015580;28;20037;-62
2023/05/21 09:17:28;;;;;;;9.27;5.90;;;;;;;-145.18;100.00;46558.81;5016031;28;20029;-62
2023/05/21 09:20:12;;;;;;;7.83;5.37;;;;;;;-145.18;100.00;46609.59;5032906;28;20584;-62
2023/05/21 09:22:49;;;;;;;6.53;5.03;;;;;;;-145.18;100.00;46603.75;5033259;28;20021;-62
2023/05/21 09:25:16;;;;;;;9.93;5.47;;;;;;;-145.18;100.00;46562.72;5032602;28;20022;-62
2023/05/21 09:27:42;;;;;;;9.53;5.10;;;;;;;-145.18;100.00;46576.41;5032879;28;20028;-63
2023/05/21 09:30:11;;;;;;;8.27;5.23;;;;;;;-145.18;100.00;46593.97;5015315;28;20029;-63
2023/05/21 09:32:38;;;;;;;7.60;5.50;;;;;;;-145.18;100.00;46621.31;5037504;28;20028;-62
2023/05/21 09:35:08;;;;;;;6.47;5.23;;;;;;;-145.18;100.00;46775.66;5033331;28;20036;-62
2023/05/21 09:37:44;;;;;;;8.23;5.50;;;;;;;-145.18;100.00;47162.44;5032497;28;20066;-61
2023/05/21 09:40:09;;;;;;;;;;;;;;;-145.18;100.00;47207.38;5015647;28;20033;-63
2023/05/21 09:42:35;;;;;;;12.18;5.55;;;;;;;-145.18;100.00;47230.81;5032981;28;19916;-63
2023/05/21 09:45:00;;;;;;;8.00;5.13;;;;;;;-145.18;100.00;47205.41;5014930;28;20033;-62
2023/05/21 09:47:25;;;;;;;8.70;5.23;;;;;;;-145.18;100.00;47201.50;5048766;28;20108;-62
2023/05/21 09:49:51;;;;;;;8.30;5.90;;;;;;;-145.18;100.00;47178.06;5052744;28;20104;-63
2023/05/21 09:52:27;;;;;;;8.07;5.63;;;;;;;-145.18;100.00;47139.00;5052123;28;20033;-63
2023/05/21 09:54:53;;;;;;;10.47;5.87;;;;;;;-145.18;100.00;47142.91;5052644;28;20510;-63
2023/05/21 09:57:25;;;;;;;9.37;5.67;;;;;;;-145.18;100.00;47156.56;5034345;28;20040;-62
2023/05/21 09:59:51;;;;;;;8.23;5.77;;;;;;;-145.18;100.00;47133.13;5052056;28;20109;-63
2023/05/21 10:02:20;;;;;;;9.90;5.00;;;;;;;-145.18;100.00;47180.03;5035304;28;20522;-62
2023/05/21 10:04:48;;;;;;;11.47;5.60;;;;;;;-145.18;100.00;47125.31;5032066;28;20035;-62
2023/05/21 10:07:25;;;;;;;9.43;5.10;;;;;;;-145.18;100.00;47146.81;5040782;28;20756;-62
2023/05/21 10:09:55;;;;;;;9.13;5.23;;;;;;;-145.18;100.00;47131.19;5053795;28;20112;-62
2023/05/21 10:12:27;;;;;;;9.00;5.47;;;;;;;-145.18;100.00;47137.03;5045964;28;20024;-63
2023/05/21 10:15:03;;;;;;;9.80;5.80;;;;;;;-145.18;100.00;47123.38;5031854;28;20018;-62
2023/05/21 10:17:29;;;;;;;8.52;5.50;;;;;;;-145.18;100.00;47115.56;5032703;28;20025;-62
2023/05/21 10:20:00;;;;;;;10.63;5.27;;;;;;;-145.18;100.00;47113.59;5031671;28;20052;-63
2023/05/21 10:22:26;;;;;;;7.63;5.23;;;;;;;-145.18;100.00;47080.38;5031609;28;20105;-63
2023/05/21 10:24:53;;;;;;;7.73;5.40;;;;;;;-145.18;100.00;47094.06;5031069;28;20116;-62
2023/05/21 10:27:18;;;;;;;8.03;5.47;;;;;;;-145.18;100.00;47090.16;5051778;28;20128;-63
2023/05/21 10:29:44;;;;;;;7.60;6.17;;;;;;;-145.18;100.00;47121.41;5051826;28;20529;-63
2023/05/21 10:32:15;;;;;;;8.13;5.30;;;;;;;-145.18;100.00;47121.41;5028024;28;20498;-63
2023/05/21 10:34:43;;;;;;;7.00;5.47;;;;;;;-145.18;100.00;47119.47;5042648;28;20063;-63
2023/05/21 10:37:09;;;;;;;10.07;6.13;;;;;;;-145.18;100.00;47140.94;5051691;28;20035;-63
2023/05/21 10:39:37;;;;;;;8.77;5.90;;;;;;;-145.18;100.00;47152.66;5048858;28;20115;-63
2023/05/21 10:42:24;;;;;;;10.30;6.30;;;;;;;-145.18;100.00;47164.38;5032383;28;20130;-63
2023/05/21 10:45:06;;;;;;;7.13;5.33;;;;;;;-145.18;100.00;47168.28;5031531;28;20436;-63
2023/05/21 10:48:15;;;;;;;7.30;5.27;;;;;;;-145.18;100.00;47090.16;5031634;28;20560;-64
2023/05/21 10:50:52;;;;;;;8.60;6.10;;;;;;;-145.18;100.00;47068.66;5031970;28;20430;-63
2023/05/21 10:53:36;;;;;;;10.50;6.27;;;;;;;-145.18;100.00;47049.13;5031506;28;20033;-63
2023/05/21 10:56:24;;;;;;;7.83;5.80;;;;;;;-145.18;100.00;47045.22;5032099;28;20056;-63
2023/05/21 10:59:30;;;;;;;8.03;5.60;;;;;;;-145.18;100.00;47074.53;5040794;28;20083;-63
2023/05/21 11:01:56;;;;;;;7.85;5.63;;;;;;;-145.18;100.00;47096.00;5039066;28;20024;-63
2023/05/21 11:04:24;;;;;;;8.13;5.20;;;;;;;-145.18;100.00;47121.41;5035307;28;20033;-62
2023/05/21 11:06:50;;;;;;;10.67;5.90;;;;;;;-145.18;100.00;47121.41;5038039;28;20032;-63
2023/05/21 11:09:15;;;;;;;9.27;6.27;;;;;;;-145.18;100.00;47111.66;5038552;28;20060;-62
2023/05/21 11:11:44;;;;;;;9.47;6.53;;;;;;;-145.18;100.00;47049.13;5041981;28;20075;-62